sensor_id;sensor_type;location;lat;lon;timestamp;temperature;humidity
9849;DHT22;4963;51.444;6.528;2023-01-01T00:00:10;15.30;99.90
9849;DHT22;4963;51.444;6.528;2023-01-01T00:02:39;15.30;99.90
9849;DHT22;4963;51.444;6.528;2023-01-01T00:05:06;15.30;99.90
9849;DHT22;4963;51.444;6.528;2023-01-01T00:07:33;15.30;99.90
9849;DHT22;4963;51.444;6.528;2023-01-01T00:10:00;15.30;99.90
9849;DHT22;4963;51.444;6.528;2023-01-01T00:12:44;15.30;99.90
9849;DHT22;4963;51.444;6.528;2023-01-01T00:15:11;15.40;99.90
9849;DHT22;4963;51.444;6.528;2023-01-01T00:17:39;15.40;99.90
9849;DHT22;4963;51.444;6.528;2023-01-01T00:20:06;15.40;99.90
9849;DHT22;4963;51.444;6.528;2023-01-01T00:22:33;15.40;99.90
9849;DHT22;4963;51.444;6.528;2023-01-01T00:25:00;15.40;99.90
9849;DHT22;4963;51.444;6.528;2023-01-01T00:27:26;15.40;99.90
9849;DHT22;4963;51.444;6.528;2023-01-01T00:29:53;15.30;99.90
9849;DHT22;4963;51.444;6.528;2023-01-01T00:32:20;15.40;99.90
9849;DHT22;4963;51.444;6.528;2023-01-01T00:34:48;15.30;99.90
9849;DHT22;4963;51.444;6.528;2023-01-01T00:37:15;15.30;99.90
9849;DHT22;4963;51.444;6.528;2023-01-01T00:39:42;15.30;99.90
9849;DHT22;4963;51.444;6.528;2023-01-01T00:42:09;15.30;99.90
9849;DHT22;4963;51.444;6.528;2023-01-01T00:44:36;15.30;99.90
9849;DHT22;4963;51.444;6.528;2023-01-01T00:47:03;15.30;99.90
9849;DHT22;4963;51.444;6.528;2023-01-01T00:49:29;15.40;99.90
9849;DHT22;4963;51.444;6.528;2023-01-01T00:51:58;15.30;99.90
9849;DHT22;4963;51.444;6.528;2023-01-01T00:54:24;15.30;99.90
9849;DHT22;4963;51.444;6.528;2023-01-01T00:56:51;15.30;99.90
9849;DHT22;4963;51.444;6.528;2023-01-01T00:59:18;15.30;99.90
9849;DHT22;4963;51.444;6.528;2023-01-01T01:01:44;15.30;99.90
9849;DHT22;4963;51.444;6.528;2023-01-01T01:04:11;15.30;99.80
9849;DHT22;4963;51.444;6.528;2023-01-01T01:06:38;15.20;99.90
9849;DHT22;4963;51.444;6.528;2023-01-01T01:09:06;15.20;99.90
9849;DHT22;4963;51.444;6.528;2023-01-01T01:11:33;15.20;99.90
9849;DHT22;4963;51.444;6.528;2023-01-01T01:14:00;15.20;99.90
9849;DHT22;4963;51.444;6.528;2023-01-01T01:16:29;15.20;99.50
9849;DHT22;4963;51.444;6.528;2023-01-01T01:18:58;15.10;99.50
9849;DHT22;4963;51.444;6.528;2023-01-01T01:21:26;15.10;99.30
9849;DHT22;4963;51.444;6.528;2023-01-01T01:23:55;15.10;99.80
9849;DHT22;4963;51.444;6.528;2023-01-01T01:26:25;15.10;98.70
9849;DHT22;4963;51.444;6.528;2023-01-01T01:28:52;15.10;98.20
9849;DHT22;4963;51.444;6.528;2023-01-01T01:31:20;15.10;97.90
9849;DHT22;4963;51.444;6.528;2023-01-01T01:33:47;15.10;98.50
9849;DHT22;4963;51.444;6.528;2023-01-01T01:36:15;15.10;97.90
9849;DHT22;4963;51.444;6.528;2023-01-01T01:38:42;15.10;98.10
9849;DHT22;4963;51.444;6.528;2023-01-01T01:41:11;15.10;98.50
9849;DHT22;4963;51.444;6.528;2023-01-01T01:43:51;15.00;97.90
9849;DHT22;4963;51.444;6.528;2023-01-01T01:46:21;15.00;97.80
9849;DHT22;4963;51.444;6.528;2023-01-01T01:48:50;15.00;98.30
9849;DHT22;4963;51.444;6.528;2023-01-01T01:51:20;15.00;98.20
9849;DHT22;4963;51.444;6.528;2023-01-01T01:53:50;14.90;97.70
9849;DHT22;4963;51.444;6.528;2023-01-01T01:56:20;14.90;97.80
9849;DHT22;4963;51.444;6.528;2023-01-01T01:58:50;14.90;98.00
9849;DHT22;4963;51.444;6.528;2023-01-01T02:01:17;14.90;97.80
9849;DHT22;4963;51.444;6.528;2023-01-01T02:03:48;14.90;98.20
9849;DHT22;4963;51.444;6.528;2023-01-01T02:06:16;14.80;98.40
9849;DHT22;4963;51.444;6.528;2023-01-01T02:08:44;14.80;98.00
9849;DHT22;4963;51.444;6.528;2023-01-01T02:11:12;14.80;99.10
9849;DHT22;4963;51.444;6.528;2023-01-01T02:13:38;14.80;98.40
9849;DHT22;4963;51.444;6.528;2023-01-01T02:16:10;14.70;98.50
9849;DHT22;4963;51.444;6.528;2023-01-01T02:18:43;14.70;98.50
9849;DHT22;4963;51.444;6.528;2023-01-01T02:21:14;14.70;98.60
9849;DHT22;4963;51.444;6.528;2023-01-01T02:23:59;14.70;98.40
9849;DHT22;4963;51.444;6.528;2023-01-01T02:26:39;14.70;98.60
9849;DHT22;4963;51.444;6.528;2023-01-01T02:29:36;14.70;99.10
9849;DHT22;4963;51.444;6.528;2023-01-01T02:32:08;14.70;99.30
9849;DHT22;4963;51.444;6.528;2023-01-01T02:34:39;14.70;99.90
9849;DHT22;4963;51.444;6.528;2023-01-01T02:37:08;14.60;99.90
9849;DHT22;4963;51.444;6.528;2023-01-01T02:39:44;14.70;99.90
9849;DHT22;4963;51.444;6.528;2023-01-01T02:42:12;14.60;99.90
9849;DHT22;4963;51.444;6.528;2023-01-01T02:44:42;14.60;99.90
9849;DHT22;4963;51.444;6.528;2023-01-01T02:47:12;14.60;99.90
9849;DHT22;4963;51.444;6.528;2023-01-01T02:49:45;14.60;99.90
9849;DHT22;4963;51.444;6.528;2023-01-01T02:52:23;14.60;99.90
9849;DHT22;4963;51.444;6.528;2023-01-01T02:55:00;14.60;99.90
9849;DHT22;4963;51.444;6.528;2023-01-01T02:57:32;14.60;99.90
9849;DHT22;4963;51.444;6.528;2023-01-01T03:00:05;14.60;99.90
9849;DHT22;4963;51.444;6.528;2023-01-01T03:02:52;14.60;99.90
9849;DHT22;4963;51.444;6.528;2023-01-01T03:05:29;14.60;99.90
9849;DHT22;4963;51.444;6.528;2023-01-01T03:08:03;14.50;99.90
9849;DHT22;4963;51.444;6.528;2023-01-01T03:10:39;14.50;99.80
9849;DHT22;4963;51.444;6.528;2023-01-01T03:13:11;14.60;99.90
9849;DHT22;4963;51.444;6.528;2023-01-01T03:15:45;14.50;99.50
9849;DHT22;4963;51.444;6.528;2023-01-01T03:18:16;14.50;99.80
9849;DHT22;4963;51.444;6.528;2023-01-01T03:20:46;14.50;99.90
9849;DHT22;4963;51.444;6.528;2023-01-01T03:23:17;14.50;99.90
9849;DHT22;4963;51.444;6.528;2023-01-01T03:25:47;14.50;99.90
9849;DHT22;4963;51.444;6.528;2023-01-01T03:28:17;14.50;99.90
9849;DHT22;4963;51.444;6.528;2023-01-01T03:30:47;14.60;99.90
9849;DHT22;4963;51.444;6.528;2023-01-01T03:33:19;14.50;99.90
9849;DHT22;4963;51.444;6.528;2023-01-01T03:35:50;14.50;99.90
9849;DHT22;4963;51.444;6.528;2023-01-01T03:38:21;14.50;99.90
9849;DHT22;4963;51.444;6.528;2023-01-01T03:40:52;14.50;99.90
9849;DHT22;4963;51.444;6.528;2023-01-01T03:43:26;14.50;99.90
9849;DHT22;4963;51.444;6.528;2023-01-01T03:45:58;14.60;99.90
9849;DHT22;4963;51.444;6.528;2023-01-01T03:48:26;14.60;99.90
9849;DHT22;4963;51.444;6.528;2023-01-01T03:51:01;14.60;99.90
9849;DHT22;4963;51.444;6.528;2023-01-01T03:53:37;14.60;99.90
9849;DHT22;4963;51.444;6.528;2023-01-01T03:56:12;14.60;99.90
9849;DHT22;4963;51.444;6.528;2023-01-01T03:58:45;14.60;99.90
9849;DHT22;4963;51.444;6.528;2023-01-01T04:01:20;14.60;99.90
9849;DHT22;4963;51.444;6.528;2023-01-01T04:03:49;14.60;99.90
9849;DHT22;4963;51.444;6.528;2023-01-01T04:06:16;14.60;99.90
9849;DHT22;4963;51.444;6.528;2023-01-01T04:08:43;14.60;99.90
9849;DHT22;4963;51.444;6.528;2023-01-01T04:11:14;14.60;99.90
9849;DHT22;4963;51.444;6.528;2023-01-01T04:13:59;14.50;99.90
9849;DHT22;4963;51.444;6.528;2023-01-01T04:16:27;14.50;99.90
9849;DHT22;4963;51.444;6.528;2023-01-01T04:18:54;14.50;99.90
9849;DHT22;4963;51.444;6.528;2023-01-01T04:21:21;14.60;99.90
9849;DHT22;4963;51.444;6.528;2023-01-01T04:23:48;14.50;99.90
9849;DHT22;4963;51.444;6.528;2023-01-01T04:26:15;14.60;99.90
9849;DHT22;4963;51.444;6.528;2023-01-01T04:28:42;14.60;99.90
9849;DHT22;4963;51.444;6.528;2023-01-01T04:31:09;14.60;99.90
9849;DHT22;4963;51.444;6.528;2023-01-01T04:33:37;14.60;99.90
9849;DHT22;4963;51.444;6.528;2023-01-01T04:36:05;14.60;99.90
9849;DHT22;4963;51.444;6.528;2023-01-01T04:38:32;14.60;99.90
9849;DHT22;4963;51.444;6.528;2023-01-01T04:41:00;14.60;99.90
9849;DHT22;4963;51.444;6.528;2023-01-01T04:43:27;14.60;99.90
9849;DHT22;4963;51.444;6.528;2023-01-01T04:45:55;14.50;99.90
9849;DHT22;4963;51.444;6.528;2023-01-01T04:48:22;14.60;99.90
9849;DHT22;4963;51.444;6.528;2023-01-01T04:50:57;14.50;99.90
9849;DHT22;4963;51.444;6.528;2023-01-01T04:53:25;14.50;99.90
9849;DHT22;4963;51.444;6.528;2023-01-01T04:55:54;14.50;99.90
9849;DHT22;4963;51.444;6.528;2023-01-01T04:58:20;14.50;99.90
9849;DHT22;4963;51.444;6.528;2023-01-01T05:00:48;14.40;99.90
9849;DHT22;4963;51.444;6.528;2023-01-01T05:03:15;14.50;99.90
9849;DHT22;4963;51.444;6.528;2023-01-01T05:05:42;14.50;99.90
9849;DHT22;4963;51.444;6.528;2023-01-01T05:08:10;14.50;99.90
9849;DHT22;4963;51.444;6.528;2023-01-01T05:10:37;14.60;99.90
9849;DHT22;4963;51.444;6.528;2023-01-01T05:13:06;14.50;99.90
9849;DHT22;4963;51.444;6.528;2023-01-01T05:15:35;14.50;99.90
9849;DHT22;4963;51.444;6.528;2023-01-01T05:18:02;14.60;99.90
9849;DHT22;4963;51.444;6.528;2023-01-01T05:20:29;14.50;99.90
9849;DHT22;4963;51.444;6.528;2023-01-01T05:22:56;14.40;99.90
9849;DHT22;4963;51.444;6.528;2023-01-01T05:25:24;14.40;99.90
9849;DHT22;4963;51.444;6.528;2023-01-01T05:27:51;14.40;99.90
9849;DHT22;4963;51.444;6.528;2023-01-01T05:30:18;14.40;99.90
9849;DHT22;4963;51.444;6.528;2023-01-01T05:32:45;14.40;99.90
9849;DHT22;4963;51.444;6.528;2023-01-01T05:35:11;14.40;99.90
9849;DHT22;4963;51.444;6.528;2023-01-01T05:37:38;14.40;99.90
9849;DHT22;4963;51.444;6.528;2023-01-01T05:40:06;14.30;99.90
9849;DHT22;4963;51.444;6.528;2023-01-01T05:42:34;14.40;99.90
9849;DHT22;4963;51.444;6.528;2023-01-01T05:45:01;14.40;99.90
9849;DHT22;4963;51.444;6.528;2023-01-01T05:47:28;14.40;99.90
9849;DHT22;4963;51.444;6.528;2023-01-01T05:49:55;14.30;99.90
9849;DHT22;4963;51.444;6.528;2023-01-01T05:52:21;14.30;99.90
9849;DHT22;4963;51.444;6.528;2023-01-01T05:54:48;14.20;99.90
9849;DHT22;4963;51.444;6.528;2023-01-01T05:57:15;14.30;99.90
9849;DHT22;4963;51.444;6.528;2023-01-01T05:59:43;14.40;99.90
9849;DHT22;4963;51.444;6.528;2023-01-01T06:02:10;14.30;99.90
9849;DHT22;4963;51.444;6.528;2023-01-01T06:04:36;14.40;99.90
9849;DHT22;4963;51.444;6.528;2023-01-01T06:07:03;14.30;99.90
9849;DHT22;4963;51.444;6.528;2023-01-01T06:09:30;14.30;99.90
9849;DHT22;4963;51.444;6.528;2023-01-01T06:11:57;14.30;99.90
9849;DHT22;4963;51.444;6.528;2023-01-01T06:14:23;14.20;99.90
9849;DHT22;4963;51.444;6.528;2023-01-01T06:16:52;14.30;99.90
9849;DHT22;4963;51.444;6.528;2023-01-01T06:19:18;14.30;99.90
9849;DHT22;4963;51.444;6.528;2023-01-01T06:21:45;14.30;99.90
9849;DHT22;4963;51.444;6.528;2023-01-01T06:24:12;14.30;99.90
9849;DHT22;4963;51.444;6.528;2023-01-01T06:26:38;14.30;99.90
9849;DHT22;4963;51.444;6.528;2023-01-01T06:29:05;14.30;99.90
9849;DHT22;4963;51.444;6.528;2023-01-01T06:31:32;14.30;99.90
9849;DHT22;4963;51.444;6.528;2023-01-01T06:34:00;14.30;99.90
9849;DHT22;4963;51.444;6.528;2023-01-01T06:36:27;14.30;99.90
9849;DHT22;4963;51.444;6.528;2023-01-01T06:38:55;14.40;99.90
9849;DHT22;4963;51.444;6.528;2023-01-01T06:41:24;14.30;99.90
9849;DHT22;4963;51.444;6.528;2023-01-01T06:43:54;14.30;99.90
9849;DHT22;4963;51.444;6.528;2023-01-01T06:46:23;14.30;99.90
9849;DHT22;4963;51.444;6.528;2023-01-01T06:48:52;14.40;99.90
9849;DHT22;4963;51.444;6.528;2023-01-01T06:51:22;14.30;99.90
9849;DHT22;4963;51.444;6.528;2023-01-01T06:53:50;14.30;99.90
9849;DHT22;4963;51.444;6.528;2023-01-01T06:56:17;14.30;99.90
9849;DHT22;4963;51.444;6.528;2023-01-01T06:58:44;14.20;99.90
9849;DHT22;4963;51.444;6.528;2023-01-01T07:01:13;14.30;99.90
9849;DHT22;4963;51.444;6.528;2023-01-01T07:03:42;14.30;99.90
9849;DHT22;4963;51.444;6.528;2023-01-01T07:06:10;14.30;99.90
9849;DHT22;4963;51.444;6.528;2023-01-01T07:08:38;14.30;99.90
9849;DHT22;4963;51.444;6.528;2023-01-01T07:11:04;14.30;99.90
9849;DHT22;4963;51.444;6.528;2023-01-01T07:13:31;14.30;99.90
9849;DHT22;4963;51.444;6.528;2023-01-01T07:15:59;14.30;99.90
9849;DHT22;4963;51.444;6.528;2023-01-01T07:18:26;14.20;99.90
9849;DHT22;4963;51.444;6.528;2023-01-01T07:20:54;14.20;99.90
9849;DHT22;4963;51.444;6.528;2023-01-01T07:23:21;14.10;99.90
9849;DHT22;4963;51.444;6.528;2023-01-01T07:25:50;14.00;99.90
9849;DHT22;4963;51.444;6.528;2023-01-01T07:28:17;14.00;99.90
9849;DHT22;4963;51.444;6.528;2023-01-01T07:30:44;13.90;99.90
9849;DHT22;4963;51.444;6.528;2023-01-01T07:33:11;13.90;99.90
9849;DHT22;4963;51.444;6.528;2023-01-01T07:35:38;13.90;99.90
9849;DHT22;4963;51.444;6.528;2023-01-01T07:38:05;13.80;99.90
9849;DHT22;4963;51.444;6.528;2023-01-01T07:40:32;13.70;99.90
9849;DHT22;4963;51.444;6.528;2023-01-01T07:43:00;13.70;99.90
9849;DHT22;4963;51.444;6.528;2023-01-01T07:45:27;13.60;99.90
9849;DHT22;4963;51.444;6.528;2023-01-01T07:47:55;13.60;99.90
9849;DHT22;4963;51.444;6.528;2023-01-01T07:50:24;13.60;99.90
9849;DHT22;4963;51.444;6.528;2023-01-01T07:52:51;13.60;99.90
9849;DHT22;4963;51.444;6.528;2023-01-01T07:55:18;13.70;99.90
9849;DHT22;4963;51.444;6.528;2023-01-01T07:57:46;13.60;99.90
9849;DHT22;4963;51.444;6.528;2023-01-01T08:00:17;13.50;99.90
9849;DHT22;4963;51.444;6.528;2023-01-01T08:02:44;13.50;99.90
9849;DHT22;4963;51.444;6.528;2023-01-01T08:05:11;13.50;99.90
9849;DHT22;4963;51.444;6.528;2023-01-01T08:07:37;13.60;99.90
9849;DHT22;4963;51.444;6.528;2023-01-01T08:10:06;13.50;99.90
9849;DHT22;4963;51.444;6.528;2023-01-01T08:12:33;13.60;99.90
9849;DHT22;4963;51.444;6.528;2023-01-01T08:15:00;13.50;99.90
9849;DHT22;4963;51.444;6.528;2023-01-01T08:17:28;13.50;99.90
9849;DHT22;4963;51.444;6.528;2023-01-01T08:19:54;13.60;99.90
9849;DHT22;4963;51.444;6.528;2023-01-01T08:22:21;13.40;99.90
9849;DHT22;4963;51.444;6.528;2023-01-01T08:24:48;13.50;99.90
9849;DHT22;4963;51.444;6.528;2023-01-01T08:27:15;13.50;99.90
9849;DHT22;4963;51.444;6.528;2023-01-01T08:29:43;13.50;99.90
9849;DHT22;4963;51.444;6.528;2023-01-01T08:32:10;13.50;99.90
9849;DHT22;4963;51.444;6.528;2023-01-01T08:34:38;13.60;99.90
9849;DHT22;4963;51.444;6.528;2023-01-01T08:37:05;13.50;99.90
9849;DHT22;4963;51.444;6.528;2023-01-01T08:39:32;13.50;99.90
9849;DHT22;4963;51.444;6.528;2023-01-01T08:41:59;13.50;99.90
9849;DHT22;4963;51.444;6.528;2023-01-01T08:44:25;13.50;99.90
9849;DHT22;4963;51.444;6.528;2023-01-01T08:46:52;13.50;99.90
9849;DHT22;4963;51.444;6.528;2023-01-01T08:49:19;13.50;99.90
9849;DHT22;4963;51.444;6.528;2023-01-01T08:51:47;13.40;99.90
9849;DHT22;4963;51.444;6.528;2023-01-01T08:54:14;13.50;99.90
9849;DHT22;4963;51.444;6.528;2023-01-01T08:56:41;13.50;99.90
9849;DHT22;4963;51.444;6.528;2023-01-01T08:59:07;13.50;99.90
9849;DHT22;4963;51.444;6.528;2023-01-01T09:01:34;13.50;99.90
9849;DHT22;4963;51.444;6.528;2023-01-01T09:04:01;13.50;99.90
9849;DHT22;4963;51.444;6.528;2023-01-01T09:06:28;13.50;99.90
9849;DHT22;4963;51.444;6.528;2023-01-01T09:08:56;13.50;99.90
9849;DHT22;4963;51.444;6.528;2023-01-01T09:11:24;13.50;99.90
9849;DHT22;4963;51.444;6.528;2023-01-01T09:13:52;13.50;99.90
9849;DHT22;4963;51.444;6.528;2023-01-01T09:16:20;13.50;99.90
9849;DHT22;4963;51.444;6.528;2023-01-01T09:18:47;13.60;99.90
9849;DHT22;4963;51.444;6.528;2023-01-01T09:21:14;13.60;99.90
9849;DHT22;4963;51.444;6.528;2023-01-01T09:23:40;13.60;99.90
9849;DHT22;4963;51.444;6.528;2023-01-01T09:26:09;13.50;99.90
9849;DHT22;4963;51.444;6.528;2023-01-01T09:28:36;13.50;99.90
9849;DHT22;4963;51.444;6.528;2023-01-01T09:31:04;13.50;99.90
9849;DHT22;4963;51.444;6.528;2023-01-01T09:33:32;13.50;99.90
9849;DHT22;4963;51.444;6.528;2023-01-01T09:36:11;13.50;99.90
9849;DHT22;4963;51.444;6.528;2023-01-01T09:38:39;13.40;99.90
9849;DHT22;4963;51.444;6.528;2023-01-01T09:41:13;13.50;99.90
9849;DHT22;4963;51.444;6.528;2023-01-01T09:43:51;13.60;99.90
9849;DHT22;4963;51.444;6.528;2023-01-01T09:46:23;13.60;99.90
9849;DHT22;4963;51.444;6.528;2023-01-01T09:48:53;13.50;99.90
9849;DHT22;4963;51.444;6.528;2023-01-01T09:51:21;13.60;99.90
9849;DHT22;4963;51.444;6.528;2023-01-01T09:53:51;13.60;99.90
9849;DHT22;4963;51.444;6.528;2023-01-01T09:56:24;13.60;99.90
9849;DHT22;4963;51.444;6.528;2023-01-01T09:58:52;13.50;99.90
9849;DHT22;4963;51.444;6.528;2023-01-01T10:01:29;13.60;99.90
9849;DHT22;4963;51.444;6.528;2023-01-01T10:04:03;13.70;99.90
9849;DHT22;4963;51.444;6.528;2023-01-01T10:06:40;13.70;99.90
9849;DHT22;4963;51.444;6.528;2023-01-01T10:09:16;13.60;99.90
9849;DHT22;4963;51.444;6.528;2023-01-01T10:11:53;13.60;99.90
9849;DHT22;4963;51.444;6.528;2023-01-01T10:14:27;13.50;99.90
9849;DHT22;4963;51.444;6.528;2023-01-01T10:16:58;13.60;99.90
9849;DHT22;4963;51.444;6.528;2023-01-01T10:19:31;13.60;99.90
9849;DHT22;4963;51.444;6.528;2023-01-01T10:22:03;13.60;99.90
9849;DHT22;4963;51.444;6.528;2023-01-01T10:24:37;13.70;99.90
9849;DHT22;4963;51.444;6.528;2023-01-01T10:27:12;13.60;99.90
9849;DHT22;4963;51.444;6.528;2023-01-01T10:29:47;13.70;99.90
9849;DHT22;4963;51.444;6.528;2023-01-01T10:32:18;13.80;99.90
9849;DHT22;4963;51.444;6.528;2023-01-01T10:34:46;13.80;99.90
9849;DHT22;4963;51.444;6.528;2023-01-01T10:37:13;13.70;99.90
9849;DHT22;4963;51.444;6.528;2023-01-01T10:39:41;13.80;99.90
9849;DHT22;4963;51.444;6.528;2023-01-01T10:42:11;13.80;99.90
9849;DHT22;4963;51.444;6.528;2023-01-01T10:44:39;13.80;99.90
9849;DHT22;4963;51.444;6.528;2023-01-01T10:47:21;14.00;99.90
9849;DHT22;4963;51.444;6.528;2023-01-01T10:49:56;13.80;99.90
9849;DHT22;4963;51.444;6.528;2023-01-01T10:52:27;13.80;99.90
9849;DHT22;4963;51.444;6.528;2023-01-01T10:54:56;13.80;99.90
9849;DHT22;4963;51.444;6.528;2023-01-01T10:57:32;13.80;99.90
9849;DHT22;4963;51.444;6.528;2023-01-01T11:00:18;13.90;99.90
9849;DHT22;4963;51.444;6.528;2023-01-01T11:02:46;13.90;99.90
9849;DHT22;4963;51.444;6.528;2023-01-01T11:05:15;13.90;99.90
9849;DHT22;4963;51.444;6.528;2023-01-01T11:07:42;14.00;99.90
9849;DHT22;4963;51.444;6.528;2023-01-01T11:10:17;13.90;99.90
9849;DHT22;4963;51.444;6.528;2023-01-01T11:12:46;13.90;99.90
9849;DHT22;4963;51.444;6.528;2023-01-01T11:15:23;13.90;99.90
9849;DHT22;4963;51.444;6.528;2023-01-01T11:17:52;13.90;99.90
9849;DHT22;4963;51.444;6.528;2023-01-01T11:20:27;14.00;99.90
9849;DHT22;4963;51.444;6.528;2023-01-01T11:22:54;14.00;99.90
9849;DHT22;4963;51.444;6.528;2023-01-01T11:25:24;14.00;99.90
9849;DHT22;4963;51.444;6.528;2023-01-01T11:28:17;14.10;99.90
9849;DHT22;4963;51.444;6.528;2023-01-01T11:30:57;14.10;99.90
9849;DHT22;4963;51.444;6.528;2023-01-01T11:33:26;14.10;99.90
9849;DHT22;4963;51.444;6.528;2023-01-01T11:35:55;14.10;99.90
9849;DHT22;4963;51.444;6.528;2023-01-01T11:38:23;14.10;99.90
9849;DHT22;4963;51.444;6.528;2023-01-01T11:40:52;14.10;99.90
9849;DHT22;4963;51.444;6.528;2023-01-01T11:43:23;14.20;99.90
9849;DHT22;4963;51.444;6.528;2023-01-01T11:45:53;14.10;99.90
9849;DHT22;4963;51.444;6.528;2023-01-01T11:48:25;14.10;99.90
9849;DHT22;4963;51.444;6.528;2023-01-01T11:50:54;14.20;99.90
9849;DHT22;4963;51.444;6.528;2023-01-01T11:53:32;14.20;99.90
9849;DHT22;4963;51.444;6.528;2023-01-01T11:56:05;14.20;99.90
9849;DHT22;4963;51.444;6.528;2023-01-01T11:58:42;14.20;99.90
9849;DHT22;4963;51.444;6.528;2023-01-01T12:01:16;14.20;99.90
9849;DHT22;4963;51.444;6.528;2023-01-01T12:03:50;14.10;99.90
9849;DHT22;4963;51.444;6.528;2023-01-01T12:06:23;14.20;99.90
9849;DHT22;4963;51.444;6.528;2023-01-01T12:08:57;14.20;99.90
9849;DHT22;4963;51.444;6.528;2023-01-01T12:11:28;14.20;99.90
9849;DHT22;4963;51.444;6.528;2023-01-01T12:14:04;14.10;99.90
9849;DHT22;4963;51.444;6.528;2023-01-01T12:16:43;14.20;99.90
9849;DHT22;4963;51.444;6.528;2023-01-01T12:19:14;14.20;99.90
9849;DHT22;4963;51.444;6.528;2023-01-01T12:21:45;14.20;99.90
9849;DHT22;4963;51.444;6.528;2023-01-01T12:24:14;14.20;99.90
9849;DHT22;4963;51.444;6.528;2023-01-01T12:26:56;14.20;99.90
9849;DHT22;4963;51.444;6.528;2023-01-01T12:29:39;14.20;99.90
9849;DHT22;4963;51.444;6.528;2023-01-01T12:32:16;14.20;99.90
9849;DHT22;4963;51.444;6.528;2023-01-01T12:34:50;14.20;99.90
9849;DHT22;4963;51.444;6.528;2023-01-01T12:37:27;14.10;99.90
9849;DHT22;4963;51.444;6.528;2023-01-01T12:43:01;14.20;99.90
9849;DHT22;4963;51.444;6.528;2023-01-01T12:45:52;14.20;99.90
9849;DHT22;4963;51.444;6.528;2023-01-01T12:48:29;14.20;99.90
9849;DHT22;4963;51.444;6.528;2023-01-01T12:51:03;14.20;99.90
9849;DHT22;4963;51.444;6.528;2023-01-01T12:53:36;14.30;99.90
9849;DHT22;4963;51.444;6.528;2023-01-01T12:56:24;14.20;99.90
9849;DHT22;4963;51.444;6.528;2023-01-01T12:58:59;14.20;99.90
9849;DHT22;4963;51.444;6.528;2023-01-01T13:01:30;14.20;99.90
9849;DHT22;4963;51.444;6.528;2023-01-01T13:03:59;14.20;99.90
9849;DHT22;4963;51.444;6.528;2023-01-01T13:06:30;14.20;99.90
9849;DHT22;4963;51.444;6.528;2023-01-01T13:09:03;14.20;99.90
9849;DHT22;4963;51.444;6.528;2023-01-01T13:11:31;14.20;99.90
9849;DHT22;4963;51.444;6.528;2023-01-01T13:13:59;14.20;99.90
9849;DHT22;4963;51.444;6.528;2023-01-01T13:16:35;14.20;99.90
9849;DHT22;4963;51.444;6.528;2023-01-01T13:19:03;14.30;99.90
9849;DHT22;4963;51.444;6.528;2023-01-01T13:21:30;14.30;99.90
9849;DHT22;4963;51.444;6.528;2023-01-01T13:24:04;14.20;99.90
9849;DHT22;4963;51.444;6.528;2023-01-01T13:26:43;14.30;99.90
9849;DHT22;4963;51.444;6.528;2023-01-01T13:29:33;14.20;99.90
9849;DHT22;4963;51.444;6.528;2023-01-01T13:32:04;14.20;99.90
9849;DHT22;4963;51.444;6.528;2023-01-01T13:34:32;14.10;99.90
9849;DHT22;4963;51.444;6.528;2023-01-01T13:37:27;14.10;99.90
9849;DHT22;4963;51.444;6.528;2023-01-01T13:39:56;14.10;99.90
9849;DHT22;4963;51.444;6.528;2023-01-01T13:42:43;14.00;99.90
9849;DHT22;4963;51.444;6.528;2023-01-01T13:45:21;14.10;99.90
9849;DHT22;4963;51.444;6.528;2023-01-01T13:48:03;14.10;99.90
9849;DHT22;4963;51.444;6.528;2023-01-01T13:50:42;14.10;99.90
9849;DHT22;4963;51.444;6.528;2023-01-01T13:53:35;14.00;99.90
9849;DHT22;4963;51.444;6.528;2023-01-01T13:56:20;14.00;99.90
9849;DHT22;4963;51.444;6.528;2023-01-01T13:59:13;13.90;99.90
9849;DHT22;4963;51.444;6.528;2023-01-01T14:01:49;13.90;99.90
9849;DHT22;4963;51.444;6.528;2023-01-01T14:04:29;13.80;99.90
9849;DHT22;4963;51.444;6.528;2023-01-01T14:07:01;13.60;99.90
9849;DHT22;4963;51.444;6.528;2023-01-01T14:09:29;13.80;99.90
9849;DHT22;4963;51.444;6.528;2023-01-01T14:12:07;13.80;99.90
9849;DHT22;4963;51.444;6.528;2023-01-01T14:14:34;13.70;99.90
9849;DHT22;4963;51.444;6.528;2023-01-01T14:17:05;13.70;99.90
9849;DHT22;4963;51.444;6.528;2023-01-01T14:19:34;13.60;99.90
9849;DHT22;4963;51.444;6.528;2023-01-01T14:22:05;13.70;99.90
9849;DHT22;4963;51.444;6.528;2023-01-01T14:24:32;13.60;99.90
9849;DHT22;4963;51.444;6.528;2023-01-01T14:27:04;13.60;99.90
9849;DHT22;4963;51.444;6.528;2023-01-01T14:29:31;13.60;99.90
9849;DHT22;4963;51.444;6.528;2023-01-01T14:32:11;13.60;99.90
9849;DHT22;4963;51.444;6.528;2023-01-01T14:34:40;13.60;99.90
9849;DHT22;4963;51.444;6.528;2023-01-01T14:37:20;13.60;99.90
9849;DHT22;4963;51.444;6.528;2023-01-01T14:40:05;13.50;99.90
9849;DHT22;4963;51.444;6.528;2023-01-01T14:42:33;13.50;99.90
9849;DHT22;4963;51.444;6.528;2023-01-01T14:45:02;13.50;99.90
9849;DHT22;4963;51.444;6.528;2023-01-01T14:47:31;13.50;99.90
9849;DHT22;4963;51.444;6.528;2023-01-01T14:50:03;13.40;99.90
9849;DHT22;4963;51.444;6.528;2023-01-01T14:52:32;13.40;99.90
9849;DHT22;4963;51.444;6.528;2023-01-01T14:55:01;13.40;99.90
9849;DHT22;4963;51.444;6.528;2023-01-01T14:57:30;13.40;99.90
9849;DHT22;4963;51.444;6.528;2023-01-01T14:59:58;13.40;99.90
9849;DHT22;4963;51.444;6.528;2023-01-01T15:02:26;13.30;99.90
9849;DHT22;4963;51.444;6.528;2023-01-01T15:04:55;13.30;99.90
9849;DHT22;4963;51.444;6.528;2023-01-01T15:07:25;13.40;99.90
9849;DHT22;4963;51.444;6.528;2023-01-01T15:09:53;13.30;99.90
9849;DHT22;4963;51.444;6.528;2023-01-01T15:12:21;13.30;99.90
9849;DHT22;4963;51.444;6.528;2023-01-01T15:14:49;13.40;99.90
9849;DHT22;4963;51.444;6.528;2023-01-01T15:17:18;13.30;99.90
9849;DHT22;4963;51.444;6.528;2023-01-01T15:19:58;13.30;99.90
9849;DHT22;4963;51.444;6.528;2023-01-01T15:22:29;13.30;99.90
9849;DHT22;4963;51.444;6.528;2023-01-01T15:24:57;13.20;99.90
9849;DHT22;4963;51.444;6.528;2023-01-01T15:27:27;13.20;99.90
9849;DHT22;4963;51.444;6.528;2023-01-01T15:29:54;13.20;99.90
9849;DHT22;4963;51.444;6.528;2023-01-01T15:32:24;13.10;99.90
9849;DHT22;4963;51.444;6.528;2023-01-01T15:34:53;13.10;99.90
9849;DHT22;4963;51.444;6.528;2023-01-01T15:37:22;13.10;99.90
9849;DHT22;4963;51.444;6.528;2023-01-01T15:39:55;13.10;99.90
9849;DHT22;4963;51.444;6.528;2023-01-01T15:42:32;13.10;99.90
9849;DHT22;4963;51.444;6.528;2023-01-01T15:45:19;13.10;99.90
9849;DHT22;4963;51.444;6.528;2023-01-01T15:47:46;13.10;99.90
9849;DHT22;4963;51.444;6.528;2023-01-01T15:50:20;13.10;99.90
9849;DHT22;4963;51.444;6.528;2023-01-01T15:52:49;13.10;99.90
9849;DHT22;4963;51.444;6.528;2023-01-01T15:55:18;13.10;99.90
9849;DHT22;4963;51.444;6.528;2023-01-01T15:57:46;13.10;99.90
9849;DHT22;4963;51.444;6.528;2023-01-01T16:00:18;13.00;99.90
9849;DHT22;4963;51.444;6.528;2023-01-01T16:02:47;13.00;99.90
9849;DHT22;4963;51.444;6.528;2023-01-01T16:05:17;13.00;99.90
9849;DHT22;4963;51.444;6.528;2023-01-01T16:07:44;13.00;99.90
9849;DHT22;4963;51.444;6.528;2023-01-01T16:10:13;13.00;99.90
9849;DHT22;4963;51.444;6.528;2023-01-01T16:12:41;12.90;99.90
9849;DHT22;4963;51.444;6.528;2023-01-01T16:15:13;12.90;99.90
9849;DHT22;4963;51.444;6.528;2023-01-01T16:17:41;13.00;99.90
9849;DHT22;4963;51.444;6.528;2023-01-01T16:20:12;13.00;99.90
9849;DHT22;4963;51.444;6.528;2023-01-01T16:22:40;13.00;99.90
9849;DHT22;4963;51.444;6.528;2023-01-01T16:25:12;13.00;99.90